sensor_id;sensor_type;location;lat;lon;timestamp;pressure;altitude;pressure_sealevel;temperature;humidity
13033;BME280;6583;42.632;23.298;2023-05-25T00:01:12;69903.31;;;-146.40;67.72
13033;BME280;6583;42.632;23.298;2023-05-25T00:03:40;69925.56;;;-146.40;69.10
13033;BME280;6583;42.632;23.298;2023-05-25T00:06:07;69949.84;;;-146.40;70.70
13033;BME280;6583;42.632;23.298;2023-05-25T00:08:34;69964.00;;;-146.40;72.28
13033;BME280;6583;42.632;23.298;2023-05-25T00:11:01;69961.97;;;-146.40;72.54
13033;BME280;6583;42.632;23.298;2023-05-25T00:13:29;69947.81;;;-146.40;70.71
13033;BME280;6583;42.632;23.298;2023-05-25T00:15:56;69931.63;;;-146.40;69.38
13033;BME280;6583;42.632;23.298;2023-05-25T00:18:22;69929.59;;;-146.40;70.02
13033;BME280;6583;42.632;23.298;2023-05-25T00:20:50;69935.66;;;-146.40;69.33
13033;BME280;6583;42.632;23.298;2023-05-25T00:23:18;69951.84;;;-146.40;69.49
13033;BME280;6583;42.632;23.298;2023-05-25T00:25:45;69968.03;;;-146.40;70.34
13033;BME280;6583;42.632;23.298;2023-05-25T00:28:11;69980.19;;;-146.40;70.15
13033;BME280;6583;42.632;23.298;2023-05-25T00:30:40;69982.19;;;-146.40;70.98
13033;BME280;6583;42.632;23.298;2023-05-25T00:33:06;69994.34;;;-146.40;71.54
13033;BME280;6583;42.632;23.298;2023-05-25T00:35:34;70002.44;;;-146.40;72.70
13033;BME280;6583;42.632;23.298;2023-05-25T00:38:01;69992.31;;;-146.40;72.07
13033;BME280;6583;42.632;23.298;2023-05-25T00:40:28;69988.25;;;-146.40;71.35
13033;BME280;6583;42.632;23.298;2023-05-25T00:42:54;69984.22;;;-146.40;70.44
13033;BME280;6583;42.632;23.298;2023-05-25T00:45:22;69974.09;;;-146.40;70.46
13033;BME280;6583;42.632;23.298;2023-05-25T00:47:51;69984.22;;;-146.40;70.63
13033;BME280;6583;42.632;23.298;2023-05-25T00:50:21;70006.47;;;-146.40;71.05
13033;BME280;6583;42.632;23.298;2023-05-25T00:52:54;70030.75;;;-146.40;72.05
13033;BME280;6583;42.632;23.298;2023-05-25T00:55:22;70040.88;;;-146.40;73.10
13033;BME280;6583;42.632;23.298;2023-05-25T00:57:50;70038.84;;;-146.40;74.18
13033;BME280;6583;42.632;23.298;2023-05-25T01:00:19;70040.88;;;-146.40;73.51
13033;BME280;6583;42.632;23.298;2023-05-25T01:02:46;70022.66;;;-146.40;72.15
13033;BME280;6583;42.632;23.298;2023-05-25T01:05:18;70006.47;;;-146.40;70.81
13033;BME280;6583;42.632;23.298;2023-05-25T01:07:48;69994.34;;;-146.40;71.15
13033;BME280;6583;42.632;23.298;2023-05-25T01:10:18;70008.50;;;-146.40;71.30
13033;BME280;6583;42.632;23.298;2023-05-25T01:12:49;70038.84;;;-146.40;72.02
13033;BME280;6583;42.632;23.298;2023-05-25T01:15:19;70063.13;;;-146.40;73.63
13033;BME280;6583;42.632;23.298;2023-05-25T01:17:48;70089.41;;;-146.40;74.88
13033;BME280;6583;42.632;23.298;2023-05-25T01:20:19;70109.63;;;-146.40;75.88
13033;BME280;6583;42.632;23.298;2023-05-25T01:22:50;70115.72;;;-146.40;77.07
13033;BME280;6583;42.632;23.298;2023-05-25T01:25:22;70109.63;;;-146.40;77.30
13033;BME280;6583;42.632;23.298;2023-05-25T01:27:53;70103.56;;;-146.40;78.05
13033;BME280;6583;42.632;23.298;2023-05-25T01:30:21;70089.41;;;-146.40;76.27
13033;BME280;6583;42.632;23.298;2023-05-25T01:32:52;70081.31;;;-146.40;75.41
13033;BME280;6583;42.632;23.298;2023-05-25T01:35:19;70067.16;;;-146.40;74.34
13033;BME280;6583;42.632;23.298;2023-05-25T01:37:49;70055.03;;;-146.40;74.66
13033;BME280;6583;42.632;23.298;2023-05-25T01:40:17;70036.81;;;-146.40;74.26
13033;BME280;6583;42.632;23.298;2023-05-25T01:42:43;70022.66;;;-146.40;73.73
13033;BME280;6583;42.632;23.298;2023-05-25T01:45:12;70024.69;;;-146.40;73.75
13033;BME280;6583;42.632;23.298;2023-05-25T01:47:45;70026.69;;;-146.40;73.81
13033;BME280;6583;42.632;23.298;2023-05-25T01:50:23;70020.63;;;-146.40;73.71
13033;BME280;6583;42.632;23.298;2023-05-25T01:52:56;70016.59;;;-146.40;73.86
13033;BME280;6583;42.632;23.298;2023-05-25T01:55:26;70006.47;;;-146.40;72.47
13033;BME280;6583;42.632;23.298;2023-05-25T01:57:55;70000.41;;;-146.40;72.18
13033;BME280;6583;42.632;23.298;2023-05-25T02:00:25;69998.38;;;-146.40;72.09
13033;BME280;6583;42.632;23.298;2023-05-25T02:02:52;70000.41;;;-146.40;72.78
13033;BME280;6583;42.632;23.298;2023-05-25T02:05:20;70014.56;;;-146.40;73.23
13033;BME280;6583;42.632;23.298;2023-05-25T02:07:46;70024.69;;;-146.40;73.51
13033;BME280;6583;42.632;23.298;2023-05-25T02:10:14;70032.78;;;-146.40;73.22
13033;BME280;6583;42.632;23.298;2023-05-25T02:12:41;70061.09;;;-146.40;74.30
13033;BME280;6583;42.632;23.298;2023-05-25T02:15:09;70091.44;;;-146.40;75.50
13033;BME280;6583;42.632;23.298;2023-05-25T02:17:36;70109.63;;;-146.40;77.43
13033;BME280;6583;42.632;23.298;2023-05-25T02:20:03;70133.91;;;-146.40;78.49
13033;BME280;6583;42.632;23.298;2023-05-25T02:22:30;70142.00;;;-146.40;79.79
13033;BME280;6583;42.632;23.298;2023-05-25T02:24:57;70164.25;;;-146.40;80.20
13033;BME280;6583;42.632;23.298;2023-05-25T02:27:25;70178.44;;;-146.40;81.08
13033;BME280;6583;42.632;23.298;2023-05-25T02:29:52;70176.41;;;-146.40;82.13
13033;BME280;6583;42.632;23.298;2023-05-25T02:32:18;70170.34;;;-146.40;82.59
13033;BME280;6583;42.632;23.298;2023-05-25T02:34:45;70158.19;;;-146.40;82.27
13033;BME280;6583;42.632;23.298;2023-05-25T02:37:12;70146.06;;;-146.40;82.21
13033;BME280;6583;42.632;23.298;2023-05-25T02:39:39;70133.91;;;-146.40;80.12
13033;BME280;6583;42.632;23.298;2023-05-25T02:42:05;70133.91;;;-146.40;79.85
13033;BME280;6583;42.632;23.298;2023-05-25T02:44:33;70137.97;;;-146.40;79.97
13033;BME280;6583;42.632;23.298;2023-05-25T02:47:00;70144.03;;;-146.40;80.12
13033;BME280;6583;42.632;23.298;2023-05-25T02:49:27;70133.91;;;-146.40;79.57
13033;BME280;6583;42.632;23.298;2023-05-25T02:51:54;70131.91;;;-146.40;78.87
13033;BME280;6583;42.632;23.298;2023-05-25T02:54:21;70133.91;;;-146.40;79.43
13033;BME280;6583;42.632;23.298;2023-05-25T02:56:47;70137.97;;;-146.40;79.25
13033;BME280;6583;42.632;23.298;2023-05-25T02:59:14;70142.00;;;-146.40;78.66
13033;BME280;6583;42.632;23.298;2023-05-25T03:01:42;70144.03;;;-146.40;79.05
13033;BME280;6583;42.632;23.298;2023-05-25T03:04:09;70137.97;;;-146.40;79.51
13033;BME280;6583;42.632;23.298;2023-05-25T03:06:36;70133.91;;;-146.40;79.29
13033;BME280;6583;42.632;23.298;2023-05-25T03:09:02;70123.81;;;-146.40;77.94
13033;BME280;6583;42.632;23.298;2023-05-25T03:11:30;70113.69;;;-146.40;77.08
13033;BME280;6583;42.632;23.298;2023-05-25T03:13:57;70129.88;;;-146.40;77.02
13033;BME280;6583;42.632;23.298;2023-05-25T03:16:24;70142.00;;;-146.40;77.51
13033;BME280;6583;42.632;23.298;2023-05-25T03:18:52;70154.16;;;-146.40;78.74
13033;BME280;6583;42.632;23.298;2023-05-25T03:21:19;70158.19;;;-146.40;79.15
13033;BME280;6583;42.632;23.298;2023-05-25T03:23:46;70164.25;;;-146.40;80.18
13033;BME280;6583;42.632;23.298;2023-05-25T03:26:13;70174.38;;;-146.40;80.99
13033;BME280;6583;42.632;23.298;2023-05-25T03:28:41;70166.28;;;-146.40;80.83
13033;BME280;6583;42.632;23.298;2023-05-25T03:31:08;70168.31;;;-146.40;81.04
13033;BME280;6583;42.632;23.298;2023-05-25T03:33:35;70156.16;;;-146.40;81.38
13033;BME280;6583;42.632;23.298;2023-05-25T03:36:06;70154.16;;;-146.40;80.85
13033;BME280;6583;42.632;23.298;2023-05-25T03:38:33;70158.19;;;-146.40;81.20
13033;BME280;6583;42.632;23.298;2023-05-25T03:40:59;70152.13;;;-146.40;81.44
13033;BME280;6583;42.632;23.298;2023-05-25T03:43:26;70150.09;;;-146.40;81.13
13033;BME280;6583;42.632;23.298;2023-05-25T03:45:53;70142.00;;;-146.40;80.74
13033;BME280;6583;42.632;23.298;2023-05-25T03:48:19;70142.00;;;-146.40;81.38
13033;BME280;6583;42.632;23.298;2023-05-25T03:50:46;70137.97;;;-146.40;82.24
13033;BME280;6583;42.632;23.298;2023-05-25T03:53:14;70131.91;;;-146.40;82.06
13033;BME280;6583;42.632;23.298;2023-05-25T03:55:41;70129.88;;;-146.40;82.81
13033;BME280;6583;42.632;23.298;2023-05-25T03:58:07;70119.75;;;-146.40;82.83
13033;BME280;6583;42.632;23.298;2023-05-25T04:00:35;70105.59;;;-146.40;81.92
13033;BME280;6583;42.632;23.298;2023-05-25T04:03:02;70091.44;;;-146.40;81.51
13033;BME280;6583;42.632;23.298;2023-05-25T04:05:28;70081.31;;;-146.40;80.27
13033;BME280;6583;42.632;23.298;2023-05-25T04:07:55;70073.22;;;-146.40;80.62
13033;BME280;6583;42.632;23.298;2023-05-25T04:10:23;70069.19;;;-146.40;81.00
13033;BME280;6583;42.632;23.298;2023-05-25T04:12:50;70061.09;;;-146.40;81.60
13033;BME280;6583;42.632;23.298;2023-05-25T04:15:20;70059.06;;;-146.40;81.82
13033;BME280;6583;42.632;23.298;2023-05-25T04:17:47;70044.91;;;-146.40;81.98
13033;BME280;6583;42.632;23.298;2023-05-25T04:20:14;70040.88;;;-146.40;82.08
13033;BME280;6583;42.632;23.298;2023-05-25T04:22:40;70032.78;;;-146.40;81.69
13033;BME280;6583;42.632;23.298;2023-05-25T04:25:09;70024.69;;;-146.40;80.90
13033;BME280;6583;42.632;23.298;2023-05-25T04:27:37;70008.50;;;-146.40;77.51
13033;BME280;6583;42.632;23.298;2023-05-25T04:30:06;70000.41;;;-146.40;75.98
13033;BME280;6583;42.632;23.298;2023-05-25T04:32:32;69984.22;;;-146.40;77.55
13033;BME280;6583;42.632;23.298;2023-05-25T04:35:01;69976.13;;;-146.40;75.98
13033;BME280;6583;42.632;23.298;2023-05-25T04:37:31;69964.00;;;-146.40;75.33
13033;BME280;6583;42.632;23.298;2023-05-25T04:39:57;69945.78;;;-146.40;74.01
13033;BME280;6583;42.632;23.298;2023-05-25T04:42:24;69937.69;;;-146.40;74.37
13033;BME280;6583;42.632;23.298;2023-05-25T04:44:52;69935.66;;;-146.40;73.83
13033;BME280;6583;42.632;23.298;2023-05-25T04:47:20;69929.59;;;-146.40;73.62
13033;BME280;6583;42.632;23.298;2023-05-25T04:49:46;69919.50;;;-146.40;73.77
13033;BME280;6583;42.632;23.298;2023-05-25T04:52:13;69903.31;;;-146.40;72.12
13033;BME280;6583;42.632;23.298;2023-05-25T04:54:39;69903.31;;;-146.40;72.45
13033;BME280;6583;42.632;23.298;2023-05-25T04:57:07;69885.09;;;-146.40;73.66
13033;BME280;6583;42.632;23.298;2023-05-25T04:59:34;69862.84;;;-146.40;73.74
13033;BME280;6583;42.632;23.298;2023-05-25T05:02:02;69840.59;;;-146.40;72.39
13033;BME280;6583;42.632;23.298;2023-05-25T05:04:29;69826.44;;;-146.40;71.17
13033;BME280;6583;42.632;23.298;2023-05-25T05:06:56;69798.13;;;-146.40;72.43
13033;BME280;6583;42.632;23.298;2023-05-25T05:09:24;69777.91;;;-146.40;71.15
13033;BME280;6583;42.632;23.298;2023-05-25T05:11:50;69773.84;;;-146.40;70.32
13033;BME280;6583;42.632;23.298;2023-05-25T05:14:17;69761.72;;;-146.40;69.38
13033;BME280;6583;42.632;23.298;2023-05-25T05:16:43;69741.47;;;-146.40;70.17
13033;BME280;6583;42.632;23.298;2023-05-25T05:19:13;69731.38;;;-146.40;69.55
13033;BME280;6583;42.632;23.298;2023-05-25T05:21:40;69709.13;;;-146.40;67.64
13033;BME280;6583;42.632;23.298;2023-05-25T05:24:06;69713.16;;;-146.40;68.45
13033;BME280;6583;42.632;23.298;2023-05-25T05:26:33;69707.09;;;-146.40;68.51
13033;BME280;6583;42.632;23.298;2023-05-25T05:29:00;69701.03;;;-146.40;68.06
13033;BME280;6583;42.632;23.298;2023-05-25T05:31:28;69699.00;;;-146.40;67.64
13033;BME280;6583;42.632;23.298;2023-05-25T05:33:55;69696.97;;;-146.40;67.73
13033;BME280;6583;42.632;23.298;2023-05-25T05:36:23;69701.03;;;-146.40;67.35
13033;BME280;6583;42.632;23.298;2023-05-25T05:38:53;69703.06;;;-146.40;67.47
13033;BME280;6583;42.632;23.298;2023-05-25T05:41:20;69709.13;;;-146.40;67.99
13033;BME280;6583;42.632;23.298;2023-05-25T05:43:47;69705.06;;;-146.40;66.76
13033;BME280;6583;42.632;23.298;2023-05-25T05:46:14;69707.09;;;-146.40;67.86
13033;BME280;6583;42.632;23.298;2023-05-25T05:48:41;69707.09;;;-146.40;66.89
13033;BME280;6583;42.632;23.298;2023-05-25T05:51:07;69709.13;;;-146.40;66.38
13033;BME280;6583;42.632;23.298;2023-05-25T05:53:35;69713.16;;;-146.40;65.72
13033;BME280;6583;42.632;23.298;2023-05-25T05:56:02;69733.38;;;-146.40;66.31
13033;BME280;6583;42.632;23.298;2023-05-25T05:58:29;69729.34;;;-146.40;65.26
13033;BME280;6583;42.632;23.298;2023-05-25T06:00:56;69731.38;;;-146.40;64.67
13033;BME280;6583;42.632;23.298;2023-05-25T06:03:24;69723.28;;;-146.40;63.29
13033;BME280;6583;42.632;23.298;2023-05-25T06:05:52;69715.19;;;-146.40;63.90
13033;BME280;6583;42.632;23.298;2023-05-25T06:08:18;69707.09;;;-146.40;64.18
13033;BME280;6583;42.632;23.298;2023-05-25T06:10:47;69696.97;;;-146.40;63.43
13033;BME280;6583;42.632;23.298;2023-05-25T06:13:13;69684.84;;;-146.40;64.10
13033;BME280;6583;42.632;23.298;2023-05-25T06:15:40;69678.78;;;-146.40;62.85
13033;BME280;6583;42.632;23.298;2023-05-25T06:18:07;69686.88;;;-146.40;61.78
13033;BME280;6583;42.632;23.298;2023-05-25T06:20:34;69668.66;;;-146.40;61.20
13033;BME280;6583;42.632;23.298;2023-05-25T06:23:00;69638.31;;;-146.40;62.21
13033;BME280;6583;42.632;23.298;2023-05-25T06:25:27;69612.03;;;-146.40;61.78
13033;BME280;6583;42.632;23.298;2023-05-25T06:27:55;69589.78;;;-146.40;61.69
13033;BME280;6583;42.632;23.298;2023-05-25T06:30:22;69557.41;;;-146.40;58.97
13033;BME280;6583;42.632;23.298;2023-05-25T06:32:49;69616.06;;;-146.40;58.45
13033;BME280;6583;42.632;23.298;2023-05-25T06:35:15;69583.72;;;-146.40;58.65
13033;BME280;6583;42.632;23.298;2023-05-25T06:37:44;69543.25;;;-146.40;57.60
13033;BME280;6583;42.632;23.298;2023-05-25T06:40:11;69521.00;;;-146.40;57.82
13033;BME280;6583;42.632;23.298;2023-05-25T06:42:37;69494.72;;;-146.40;56.44
13033;BME280;6583;42.632;23.298;2023-05-25T06:45:07;69482.59;;;-146.40;53.92
13033;BME280;6583;42.632;23.298;2023-05-25T06:47:34;69482.59;;;-146.40;53.93
13033;BME280;6583;42.632;23.298;2023-05-25T06:50:01;69468.44;;;-146.40;55.42
13033;BME280;6583;42.632;23.298;2023-05-25T06:52:27;69474.50;;;-146.40;54.46
13033;BME280;6583;42.632;23.298;2023-05-25T06:54:54;69450.22;;;-146.40;54.89
13033;BME280;6583;42.632;23.298;2023-05-25T06:57:21;69434.03;;;-146.40;53.46
13033;BME280;6583;42.632;23.298;2023-05-25T06:59:47;69417.84;;;-146.40;52.51
13033;BME280;6583;42.632;23.298;2023-05-25T07:02:16;69415.84;;;-146.40;52.61
13033;BME280;6583;42.632;23.298;2023-05-25T07:04:43;69417.84;;;-146.40;52.48
13033;BME280;6583;42.632;23.298;2023-05-25T07:07:10;69423.94;;;-146.40;53.67
13033;BME280;6583;42.632;23.298;2023-05-25T07:09:37;69430.00;;;-146.40;54.01
13033;BME280;6583;42.632;23.298;2023-05-25T07:12:05;69425.94;;;-146.40;54.63
13033;BME280;6583;42.632;23.298;2023-05-25T07:14:33;69413.81;;;-146.40;56.21
13033;BME280;6583;42.632;23.298;2023-05-25T07:17:00;69401.69;;;-146.40;55.63
13033;BME280;6583;42.632;23.298;2023-05-25T07:19:27;69397.63;;;-146.40;55.27
13033;BME280;6583;42.632;23.298;2023-05-25T07:21:54;69421.91;;;-146.40;55.62
13033;BME280;6583;42.632;23.298;2023-05-25T07:24:21;69401.69;;;-146.40;57.07
13033;BME280;6583;42.632;23.298;2023-05-25T07:26:47;69425.94;;;-146.40;56.05
13033;BME280;6583;42.632;23.298;2023-05-25T07:29:14;69430.00;;;-146.40;55.41
13033;BME280;6583;42.632;23.298;2023-05-25T07:31:41;69421.91;;;-146.40;56.05
13033;BME280;6583;42.632;23.298;2023-05-25T07:34:07;69407.75;;;-146.40;55.75
13033;BME280;6583;42.632;23.298;2023-05-25T07:36:35;69371.34;;;-146.40;54.50
13033;BME280;6583;42.632;23.298;2023-05-25T07:39:02;69349.09;;;-146.40;54.78
13033;BME280;6583;42.632;23.298;2023-05-25T07:41:29;69336.97;;;-146.40;52.80
13033;BME280;6583;42.632;23.298;2023-05-25T07:43:56;69316.72;;;-146.40;51.38
13033;BME280;6583;42.632;23.298;2023-05-25T07:46:23;69322.78;;;-146.40;50.19
13033;BME280;6583;42.632;23.298;2023-05-25T07:48:50;69330.88;;;-146.40;50.63
13033;BME280;6583;42.632;23.298;2023-05-25T07:51:18;69332.91;;;-146.40;49.02
13033;BME280;6583;42.632;23.298;2023-05-25T07:53:46;69326.84;;;-146.40;49.18
13033;BME280;6583;42.632;23.298;2023-05-25T07:56:13;69349.09;;;-146.40;49.30
13033;BME280;6583;42.632;23.298;2023-05-25T07:58:40;69349.09;;;-146.40;49.70
13033;BME280;6583;42.632;23.298;2023-05-25T08:01:06;69369.31;;;-146.40;49.18
13033;BME280;6583;42.632;23.298;2023-05-25T08:03:33;69385.50;;;-146.40;48.91
13033;BME280;6583;42.632;23.298;2023-05-25T08:06:00;69409.78;;;-146.40;50.85
13033;BME280;6583;42.632;23.298;2023-05-25T08:08:26;69466.41;;;-146.40;50.08
13033;BME280;6583;42.632;23.298;2023-05-25T08:10:54;69510.91;;;-146.40;51.17
13033;BME280;6583;42.632;23.298;2023-05-25T08:13:21;69514.94;;;-146.40;52.76
13033;BME280;6583;42.632;23.298;2023-05-25T08:15:48;69521.00;;;-146.40;54.17
13033;BME280;6583;42.632;23.298;2023-05-25T08:18:15;69523.03;;;-146.40;53.08
13033;BME280;6583;42.632;23.298;2023-05-25T08:20:42;69535.16;;;-146.40;54.40
13033;BME280;6583;42.632;23.298;2023-05-25T08:23:09;69543.25;;;-146.40;54.21
13033;BME280;6583;42.632;23.298;2023-05-25T08:25:35;69569.56;;;-146.40;54.47
13033;BME280;6583;42.632;23.298;2023-05-25T08:28:03;69587.75;;;-146.40;53.79
13033;BME280;6583;42.632;23.298;2023-05-25T08:30:30;69607.97;;;-146.40;53.50
13033;BME280;6583;42.632;23.298;2023-05-25T08:32:58;69632.25;;;-146.40;54.05
13033;BME280;6583;42.632;23.298;2023-05-25T08:35:24;69658.56;;;-146.40;54.70
13033;BME280;6583;42.632;23.298;2023-05-25T08:37:51;69674.72;;;-146.40;55.99
13033;BME280;6583;42.632;23.298;2023-05-25T08:40:22;69705.06;;;-146.40;57.82
13033;BME280;6583;42.632;23.298;2023-05-25T08:42:52;69717.22;;;-146.40;59.15
13033;BME280;6583;42.632;23.298;2023-05-25T08:45:20;69733.38;;;-146.40;58.05
13033;BME280;6583;42.632;23.298;2023-05-25T08:47:47;69753.63;;;-146.40;60.03
13033;BME280;6583;42.632;23.298;2023-05-25T08:50:15;69796.09;;;-146.40;63.12
13033;BME280;6583;42.632;23.298;2023-05-25T08:52:44;69816.31;;;-146.40;65.92
13033;BME280;6583;42.632;23.298;2023-05-25T08:55:11;69822.41;;;-146.40;70.23
13033;BME280;6583;42.632;23.298;2023-05-25T08:57:45;69838.56;;;-146.40;72.16
13033;BME280;6583;42.632;23.298;2023-05-25T09:00:17;69854.75;;;-146.40;74.53
13033;BME280;6583;42.632;23.298;2023-05-25T09:02:50;69850.72;;;-146.40;76.06
13033;BME280;6583;42.632;23.298;2023-05-25T09:05:21;69838.56;;;-146.40;76.79
13033;BME280;6583;42.632;23.298;2023-05-25T09:07:49;69828.47;;;-146.40;77.48
13033;BME280;6583;42.632;23.298;2023-05-25T09:10:19;69826.44;;;-146.40;76.97
13033;BME280;6583;42.632;23.298;2023-05-25T09:12:46;69820.38;;;-146.40;77.09
13033;BME280;6583;42.632;23.298;2023-05-25T09:15:14;69832.50;;;-146.40;79.31
13033;BME280;6583;42.632;23.298;2023-05-25T09:17:40;69826.44;;;-146.40;78.46
13033;BME280;6583;42.632;23.298;2023-05-25T09:20:10;69830.47;;;-146.40;73.30
13033;BME280;6583;42.632;23.298;2023-05-25T09:22:37;69832.50;;;-146.40;74.63
13033;BME280;6583;42.632;23.298;2023-05-25T09:25:06;69830.47;;;-146.40;73.70
13033;BME280;6583;42.632;23.298;2023-05-25T09:27:34;69852.72;;;-146.40;73.50
13033;BME280;6583;42.632;23.298;2023-05-25T09:30:03;69864.88;;;-146.40;73.21
13033;BME280;6583;42.632;23.298;2023-05-25T09:32:30;69885.09;;;-146.40;75.86
13033;BME280;6583;42.632;23.298;2023-05-25T09:35:05;69893.19;;;-146.40;76.18
13033;BME280;6583;42.632;23.298;2023-05-25T09:37:35;69899.25;;;-146.40;77.34
13033;BME280;6583;42.632;23.298;2023-05-25T09:40:02;69917.47;;;-146.40;78.74
13033;BME280;6583;42.632;23.298;2023-05-25T09:42:30;69917.47;;;-146.40;80.43
13033;BME280;6583;42.632;23.298;2023-05-25T09:44:57;69919.50;;;-146.40;81.52
13033;BME280;6583;42.632;23.298;2023-05-25T09:47:24;69925.56;;;-146.40;83.00
13033;BME280;6583;42.632;23.298;2023-05-25T09:49:51;69915.44;;;-146.40;84.37
13033;BME280;6583;42.632;23.298;2023-05-25T09:52:18;69895.22;;;-146.40;84.37
13033;BME280;6583;42.632;23.298;2023-05-25T09:54:46;69891.16;;;-146.40;78.95
13033;BME280;6583;42.632;23.298;2023-05-25T09:57:14;69891.16;;;-146.40;79.19
13033;BME280;6583;42.632;23.298;2023-05-25T09:59:41;69887.13;;;-146.40;80.44
13033;BME280;6583;42.632;23.298;2023-05-25T10:02:07;69877.00;;;-146.40;81.00
13033;BME280;6583;42.632;23.298;2023-05-25T10:04:34;69848.69;;;-146.40;82.43
13033;BME280;6583;42.632;23.298;2023-05-25T10:07:01;69834.53;;;-146.40;84.52
13033;BME280;6583;42.632;23.298;2023-05-25T10:09:29;69824.41;;;-146.40;83.56
13033;BME280;6583;42.632;23.298;2023-05-25T10:11:58;69822.41;;;-146.40;81.42
13033;BME280;6583;42.632;23.298;2023-05-25T10:14:27;69820.38;;;-146.40;80.67
13033;BME280;6583;42.632;23.298;2023-05-25T10:16:57;69810.25;;;-146.40;83.14
13033;BME280;6583;42.632;23.298;2023-05-25T10:19:27;69800.16;;;-146.40;82.54
13033;BME280;6583;42.632;23.298;2023-05-25T10:22:01;69788.00;;;-146.40;81.41
13033;BME280;6583;42.632;23.298;2023-05-25T10:24:34;69777.91;;;-146.40;81.63
13033;BME280;6583;42.632;23.298;2023-05-25T10:27:07;69777.91;;;-146.40;80.33
13033;BME280;6583;42.632;23.298;2023-05-25T10:29:36;69767.78;;;-146.40;82.00
13033;BME280;6583;42.632;23.298;2023-05-25T10:32:05;69757.66;;;-146.40;80.74
13033;BME280;6583;42.632;23.298;2023-05-25T10:34:33;69745.53;;;-146.40;78.74
13033;BME280;6583;42.632;23.298;2023-05-25T10:37:00;69731.38;;;-146.40;78.27
13033;BME280;6583;42.632;23.298;2023-05-25T10:39:28;69723.28;;;-146.40;77.82
13033;BME280;6583;42.632;23.298;2023-05-25T10:41:56;69711.13;;;-146.40;81.17
13033;BME280;6583;42.632;23.298;2023-05-25T10:44:25;69711.13;;;-146.40;75.53
13033;BME280;6583;42.632;23.298;2023-05-25T10:46:53;69690.91;;;-146.40;77.34
13033;BME280;6583;42.632;23.298;2023-05-25T10:49:29;69680.81;;;-146.40;79.80
13033;BME280;6583;42.632;23.298;2023-05-25T10:51:58;69672.72;;;-146.40;77.99
13033;BME280;6583;42.632;23.298;2023-05-25T10:54:28;69660.56;;;-146.40;81.88
13033;BME280;6583;42.632;23.298;2023-05-25T10:57:09;69652.47;;;-146.40;80.03
13033;BME280;6583;42.632;23.298;2023-05-25T10:59:40;69644.38;;;-146.40;78.34
13033;BME280;6583;42.632;23.298;2023-05-25T11:02:09;69634.28;;;-146.40;77.74
13033;BME280;6583;42.632;23.298;2023-05-25T11:04:36;69632.25;;;-146.40;76.39
13033;BME280;6583;42.632;23.298;2023-05-25T11:07:05;69646.41;;;-146.40;76.69
13033;BME280;6583;42.632;23.298;2023-05-25T11:09:40;69650.47;;;-146.40;77.01
13033;BME280;6583;42.632;23.298;2023-05-25T11:12:17;69646.41;;;-146.40;79.04
13033;BME280;6583;42.632;23.298;2023-05-25T11:15:09;69648.44;;;-146.40;76.47
13033;BME280;6583;42.632;23.298;2023-05-25T11:17:44;69650.47;;;-146.40;76.68
13033;BME280;6583;42.632;23.298;2023-05-25T11:20:20;69656.53;;;-146.40;78.36
13033;BME280;6583;42.632;23.298;2023-05-25T11:22:49;69658.56;;;-146.40;78.67
13033;BME280;6583;42.632;23.298;2023-05-25T11:25:36;69652.47;;;-146.40;77.69
13033;BME280;6583;42.632;23.298;2023-05-25T11:28:04;69656.53;;;-146.40;77.60
13033;BME280;6583;42.632;23.298;2023-05-25T11:30:33;69652.47;;;-146.40;76.39
13033;BME280;6583;42.632;23.298;2023-05-25T11:33:01;69662.59;;;-146.40;76.81
13033;BME280;6583;42.632;23.298;2023-05-25T11:35:30;69656.53;;;-146.40;78.20
13033;BME280;6583;42.632;23.298;2023-05-25T11:38:03;69654.50;;;-146.40;77.36
13033;BME280;6583;42.632;23.298;2023-05-25T11:40:30;69656.53;;;-146.40;78.48
13033;BME280;6583;42.632;23.298;2023-05-25T11:42:58;69656.53;;;-146.40;79.41
13033;BME280;6583;42.632;23.298;2023-05-25T11:45:27;69660.56;;;-146.40;76.63
13033;BME280;6583;42.632;23.298;2023-05-25T11:47:56;69658.56;;;-146.40;78.63
13033;BME280;6583;42.632;23.298;2023-05-25T11:50:23;69672.72;;;-146.40;77.56
13033;BME280;6583;42.632;23.298;2023-05-25T11:52:49;69688.88;;;-146.40;74.45
13033;BME280;6583;42.632;23.298;2023-05-25T11:55:16;69686.88;;;-146.40;76.94
13033;BME280;6583;42.632;23.298;2023-05-25T11:57:43;69684.84;;;-146.40;77.55
13033;BME280;6583;42.632;23.298;2023-05-25T12:00:11;69680.81;;;-146.40;77.19
13033;BME280;6583;42.632;23.298;2023-05-25T12:02:39;69680.81;;;-146.40;76.36
13033;BME280;6583;42.632;23.298;2023-05-25T12:05:07;69668.66;;;-146.40;77.56
13033;BME280;6583;42.632;23.298;2023-05-25T12:07:41;69668.66;;;-146.40;74.16
13033;BME280;6583;42.632;23.298;2023-05-25T12:10:09;69672.72;;;-146.40;75.39
13033;BME280;6583;42.632;23.298;2023-05-25T12:12:39;69664.63;;;-146.40;72.63
13033;BME280;6583;42.632;23.298;2023-05-25T12:15:07;69668.66;;;-146.40;72.34
13033;BME280;6583;42.632;23.298;2023-05-25T12:17:34;69672.72;;;-146.40;72.01
13033;BME280;6583;42.632;23.298;2023-05-25T12:20:01;69672.72;;;-146.40;71.17
13033;BME280;6583;42.632;23.298;2023-05-25T12:22:33;69668.66;;;-146.40;72.66
13033;BME280;6583;42.632;23.298;2023-05-25T12:24:59;69678.78;;;-146.40;67.64
13033;BME280;6583;42.632;23.298;2023-05-25T12:27:26;69678.78;;;-146.40;68.16
13033;BME280;6583;42.632;23.298;2023-05-25T12:29:57;69672.72;;;-146.40;68.44
13033;BME280;6583;42.632;23.298;2023-05-25T12:32:24;69668.66;;;-146.40;69.23
13033;BME280;6583;42.632;23.298;2023-05-25T12:35:00;69660.56;;;-146.40;70.11
13033;BME280;6583;42.632;23.298;2023-05-25T12:37:27;69654.50;;;-146.40;67.78
13033;BME280;6583;42.632;23.298;2023-05-25T12:39:55;69654.50;;;-146.40;63.15
13033;BME280;6583;42.632;23.298;2023-05-25T12:42:22;69664.63;;;-146.40;64.65
13033;BME280;6583;42.632;23.298;2023-05-25T12:44:54;69654.50;;;-146.40;65.58